sensor_id;sensor_type;location;lat;lon;timestamp;pressure;altitude;pressure_sealevel;temperature;humidity
60427;BME280;46274;47.168;27.604;2023-03-26T00:05:47;98909.09;;;10.04;66.34
60427;BME280;46274;47.168;27.604;2023-03-26T00:11:53;98923.66;;;10.03;65.65
60427;BME280;46274;47.168;27.604;2023-03-26T00:17:56;98908.56;;;7.66;75.64
60427;BME280;46274;47.168;27.604;2023-03-26T00:24:04;98908.63;;;8.39;72.77
60427;BME280;46274;47.168;27.604;2023-03-26T00:30:07;98919.19;;;9.20;68.20
60427;BME280;46274;47.168;27.604;2023-03-26T00:36:11;98919.16;;;7.82;71.93
60427;BME280;46274;47.168;27.604;2023-03-26T00:42:15;98937.19;;;7.97;72.76
60427;BME280;46274;47.168;27.604;2023-03-26T00:48:22;98923.59;;;8.99;68.07
60427;BME280;46274;47.168;27.604;2023-03-26T00:54:42;98922.63;;;9.07;66.65
60427;BME280;46274;47.168;27.604;2023-03-26T01:00:54;98941.81;;;9.18;66.51
60427;BME280;46274;47.168;27.604;2023-03-26T01:07:11;98907.06;;;9.09;65.69
60427;BME280;46274;47.168;27.604;2023-03-26T01:13:14;98932.84;;;9.11;65.48
60427;BME280;46274;47.168;27.604;2023-03-26T01:26:06;98842.06;;;8.24;66.55
60427;BME280;46274;47.168;27.604;2023-03-26T01:45:15;98926.44;;;8.18;68.92
60427;BME280;46274;47.168;27.604;2023-03-26T01:51:34;98916.09;;;7.71;71.47
60427;BME280;46274;47.168;27.604;2023-03-26T02:05:28;98869.47;;;7.92;67.43
60427;BME280;46274;47.168;27.604;2023-03-26T02:11:09;98934.81;;;6.59;76.30
60427;BME280;46274;47.168;27.604;2023-03-26T02:17:13;98861.16;;;7.42;69.58
60427;BME280;46274;47.168;27.604;2023-03-26T02:23:15;98924.72;;;7.96;68.06
60427;BME280;46274;47.168;27.604;2023-03-26T02:29:17;98930.84;;;8.04;68.07
60427;BME280;46274;47.168;27.604;2023-03-26T02:35:24;98923.84;;;8.10;67.37
60427;BME280;46274;47.168;27.604;2023-03-26T02:41:27;98944.59;;;8.24;67.17
60427;BME280;46274;47.168;27.604;2023-03-26T02:47:30;98958.06;;;8.24;67.81
60427;BME280;46274;47.168;27.604;2023-03-26T02:53:32;98962.44;;;8.25;68.52
60427;BME280;46274;47.168;27.604;2023-03-26T02:59:35;98962.06;;;8.28;69.43
60427;BME280;46274;47.168;27.604;2023-03-26T03:05:46;98968.00;;;8.39;69.03
60427;BME280;46274;47.168;27.604;2023-03-26T03:11:48;98981.78;;;8.44;69.41
60427;BME280;46274;47.168;27.604;2023-03-26T03:17:50;98928.25;;;8.11;69.94
60427;BME280;46274;47.168;27.604;2023-03-26T03:23:54;99003.47;;;8.36;70.57
60427;BME280;46274;47.168;27.604;2023-03-26T03:30:00;98988.69;;;8.32;70.76
60427;BME280;46274;47.168;27.604;2023-03-26T03:36:03;99001.28;;;8.39;72.01
60427;BME280;46274;47.168;27.604;2023-03-26T03:42:23;99023.69;;;8.40;73.34
60427;BME280;46274;47.168;27.604;2023-03-26T03:48:26;98951.88;;;8.09;74.37
60427;BME280;46274;47.168;27.604;2023-03-26T03:54:33;98993.16;;;8.24;74.80
60427;BME280;46274;47.168;27.604;2023-03-26T04:00:36;98991.47;;;8.23;75.80
60427;BME280;46274;47.168;27.604;2023-03-26T04:06:43;99041.44;;;8.49;75.40
60427;BME280;46274;47.168;27.604;2023-03-26T04:12:46;99050.69;;;8.40;75.75
60427;BME280;46274;47.168;27.604;2023-03-26T04:18:48;98976.69;;;7.90;75.92
60427;BME280;46274;47.168;27.604;2023-03-26T04:24:53;99026.94;;;8.05;77.02
60427;BME280;46274;47.168;27.604;2023-03-26T04:30:58;99044.16;;;8.19;77.01
60427;BME280;46274;47.168;27.604;2023-03-26T04:37:03;99030.75;;;8.11;77.80
60427;BME280;46274;47.168;27.604;2023-03-26T04:43:15;98839.94;;;6.80;79.36
60427;BME280;46274;47.168;27.604;2023-03-26T04:49:24;98962.38;;;7.74;77.63
60427;BME280;46274;47.168;27.604;2023-03-26T04:55:38;99043.50;;;8.47;76.75
60427;BME280;46274;47.168;27.604;2023-03-26T05:01:43;99021.16;;;8.53;75.30
60427;BME280;46274;47.168;27.604;2023-03-26T05:07:49;99045.22;;;8.69;75.26
60427;BME280;46274;47.168;27.604;2023-03-26T05:14:26;98783.97;;;7.19;74.44
60427;BME280;46274;47.168;27.604;2023-03-26T05:21:09;98798.19;;;7.28;74.50
60427;BME280;46274;47.168;27.604;2023-03-26T05:27:44;98812.38;;;7.07;76.89
60427;BME280;46274;47.168;27.604;2023-03-26T05:34:01;99055.56;;;8.81;75.13
60427;BME280;46274;47.168;27.604;2023-03-26T05:40:20;99058.31;;;8.87;74.76
60427;BME280;46274;47.168;27.604;2023-03-26T05:46:47;98826.03;;;7.50;73.95
60427;BME280;46274;47.168;27.604;2023-03-26T06:01:14;98795.84;;;6.81;78.71
60427;BME280;46274;47.168;27.604;2023-03-26T06:08:13;99085.00;;;8.76;77.73
60427;BME280;46274;47.168;27.604;2023-03-26T06:15:06;98917.28;;;7.98;76.08
60427;BME280;46274;47.168;27.604;2023-03-26T06:50:37;98855.75;;;9.15;73.52
60427;BME280;46274;47.168;27.604;2023-03-26T06:57:12;99041.41;;;10.62;72.54
60427;BME280;46274;47.168;27.604;2023-03-26T07:03:25;99067.41;;;11.05;70.89
60427;BME280;46274;47.168;27.604;2023-03-26T07:09:47;99070.38;;;11.23;69.75
60427;BME280;46274;47.168;27.604;2023-03-26T07:16:03;99059.31;;;11.38;68.77
60427;BME280;46274;47.168;27.604;2023-03-26T07:22:55;98900.31;;;10.44;68.81
60427;BME280;46274;47.168;27.604;2023-03-26T07:29:47;99057.47;;;11.52;66.35
60427;BME280;46274;47.168;27.604;2023-03-26T07:36:28;98958.97;;;10.98;66.58
60427;BME280;46274;47.168;27.604;2023-03-26T07:43:14;98878.22;;;10.40;66.27
60427;BME280;46274;47.168;27.604;2023-03-26T07:49:30;99010.09;;;11.61;65.59
60427;BME280;46274;47.168;27.604;2023-03-26T07:56:08;99058.47;;;12.31;67.38
60427;BME280;46274;47.168;27.604;2023-03-26T08:16:30;99052.41;;;13.64;61.87
60427;BME280;46274;47.168;27.604;2023-03-26T08:37:02;98955.41;;;13.44;56.51
60427;BME280;46274;47.168;27.604;2023-03-26T09:25:35;98975.94;;;14.27;52.39
60427;BME280;46274;47.168;27.604;2023-03-26T09:45:49;98982.19;;;16.02;50.39
60427;BME280;46274;47.168;27.604;2023-03-26T09:52:56;98981.47;;;15.60;48.74
60427;BME280;46274;47.168;27.604;2023-03-26T10:39:59;98832.09;;;13.50;53.32
60427;BME280;46274;47.168;27.604;2023-03-26T10:53:38;98962.88;;;13.24;53.23
60427;BME280;46274;47.168;27.604;2023-03-26T10:59:45;98745.44;;;12.17;51.62
60427;BME280;46274;47.168;27.604;2023-03-26T11:06:07;98956.16;;;14.20;51.08
60427;BME280;46274;47.168;27.604;2023-03-26T11:12:55;98733.09;;;13.33;47.86
60427;BME280;46274;47.168;27.604;2023-03-26T11:19:34;98966.50;;;14.30;50.07
60427;BME280;46274;47.168;27.604;2023-03-26T11:32:42;99014.56;;;14.43;49.14
60427;BME280;46274;47.168;27.604;2023-03-26T11:38:49;98997.59;;;13.35;54.86
60427;BME280;46274;47.168;27.604;2023-03-26T11:45:01;98998.34;;;13.42;55.23
60427;BME280;46274;47.168;27.604;2023-03-26T11:51:37;99006.59;;;13.29;56.10
60427;BME280;46274;47.168;27.604;2023-03-26T11:58:01;99003.19;;;13.65;55.75
60427;BME280;46274;47.168;27.604;2023-03-26T12:04:25;99002.22;;;13.78;55.80
60427;BME280;46274;47.168;27.604;2023-03-26T12:10:42;98724.44;;;12.31;54.93
60427;BME280;46274;47.168;27.604;2023-03-26T12:17:34;98777.13;;;12.98;54.05
60427;BME280;46274;47.168;27.604;2023-03-26T12:24:00;98969.28;;;14.42;51.47
60427;BME280;46274;47.168;27.604;2023-03-26T12:30:11;98974.75;;;14.05;49.68
60427;BME280;46274;47.168;27.604;2023-03-26T12:36:33;98872.75;;;14.19;49.35
60427;BME280;46274;47.168;27.604;2023-03-26T12:43:21;98967.59;;;14.77;47.20
60427;BME280;46274;47.168;27.604;2023-03-26T12:49:54;98942.38;;;14.82;47.25
60427;BME280;46274;47.168;27.604;2023-03-26T13:23:22;98937.47;;;15.02;46.98
60427;BME280;46274;47.168;27.604;2023-03-26T13:29:39;98930.22;;;14.48;46.94
60427;BME280;46274;47.168;27.604;2023-03-26T13:36:04;98916.97;;;15.23;47.09
60427;BME280;46274;47.168;27.604;2023-03-26T13:42:31;98912.25;;;16.01;45.50
60427;BME280;46274;47.168;27.604;2023-03-26T13:48:53;98911.00;;;13.94;53.69
60427;BME280;46274;47.168;27.604;2023-03-26T13:55:36;98845.94;;;13.49;47.86
60427;BME280;46274;47.168;27.604;2023-03-26T14:01:54;98676.41;;;14.32;47.41
60427;BME280;46274;47.168;27.604;2023-03-26T14:08:41;98878.31;;;14.73;46.82
60427;BME280;46274;47.168;27.604;2023-03-26T14:15:03;98891.13;;;15.38;43.63
60427;BME280;46274;47.168;27.604;2023-03-26T14:21:43;98871.28;;;15.07;44.55
60427;BME280;46274;47.168;27.604;2023-03-26T14:28:15;98880.28;;;16.42;45.16
60427;BME280;46274;47.168;27.604;2023-03-26T14:34:31;98879.50;;;16.58;45.48
60427;BME280;46274;47.168;27.604;2023-03-26T14:47:43;98788.72;;;15.99;45.19
60427;BME280;46274;47.168;27.604;2023-03-26T14:53:41;98799.66;;;15.99;44.14
60427;BME280;46274;47.168;27.604;2023-03-26T15:06:30;98804.63;;;15.26;44.51
60427;BME280;46274;47.168;27.604;2023-03-26T15:19:46;98882.91;;;13.31;49.84
60427;BME280;46274;47.168;27.604;2023-03-26T15:26:37;98887.16;;;14.08;48.44
60427;BME280;46274;47.168;27.604;2023-03-26T15:39:37;98894.06;;;14.22;48.88
60427;BME280;46274;47.168;27.604;2023-03-26T15:52:23;98895.28;;;13.52;50.35
60427;BME280;46274;47.168;27.604;2023-03-26T15:58:32;98704.28;;;11.82;52.86
60427;BME280;46274;47.168;27.604;2023-03-26T16:10:59;98908.00;;;13.34;52.68
60427;BME280;46274;47.168;27.604;2023-03-26T16:24:22;98913.00;;;12.80;53.14
60427;BME280;46274;47.168;27.604;2023-03-26T16:30:28;98906.53;;;13.06;52.34
60427;BME280;46274;47.168;27.604;2023-03-26T16:42:40;98917.25;;;13.76;50.90
60427;BME280;46274;47.168;27.604;2023-03-26T16:49:28;98829.97;;;13.09;51.34
60427;BME280;46274;47.168;27.604;2023-03-26T16:55:45;98925.25;;;13.21;52.42
60427;BME280;46274;47.168;27.604;2023-03-26T17:02:15;98934.97;;;12.78;53.45
60427;BME280;46274;47.168;27.604;2023-03-26T17:15:26;98949.97;;;11.71;56.03
60427;BME280;46274;47.168;27.604;2023-03-26T17:21:45;98898.00;;;11.81;54.70
60427;BME280;46274;47.168;27.604;2023-03-26T17:28:41;98931.81;;;9.12;63.80
60427;BME280;46274;47.168;27.604;2023-03-26T17:35:01;98982.56;;;11.38;56.68
60427;BME280;46274;47.168;27.604;2023-03-26T17:41:07;98991.13;;;9.49;65.36
60427;BME280;46274;47.168;27.604;2023-03-26T17:47:34;98929.72;;;10.74;57.63
60427;BME280;46274;47.168;27.604;2023-03-26T17:53:40;99002.97;;;11.07;57.33
60427;BME280;46274;47.168;27.604;2023-03-26T17:59:54;98965.34;;;8.97;63.38
60427;BME280;46274;47.168;27.604;2023-03-26T18:06:13;99019.91;;;8.70;68.69
60427;BME280;46274;47.168;27.604;2023-03-26T18:18:36;99019.81;;;10.34;61.25
60427;BME280;46274;47.168;27.604;2023-03-26T18:24:43;99009.56;;;10.30;60.87
60427;BME280;46274;47.168;27.604;2023-03-26T18:30:50;99010.16;;;9.90;62.95
60427;BME280;46274;47.168;27.604;2023-03-26T18:43:27;99017.09;;;10.28;61.47
60427;BME280;46274;47.168;27.604;2023-03-26T18:49:36;99008.03;;;10.48;60.41
60427;BME280;46274;47.168;27.604;2023-03-26T18:55:38;99015.91;;;9.80;63.33
60427;BME280;46274;47.168;27.604;2023-03-26T19:01:47;99000.28;;;9.48;66.04
60427;BME280;46274;47.168;27.604;2023-03-26T19:07:54;98988.88;;;10.15;62.65
60427;BME280;46274;47.168;27.604;2023-03-26T19:14:00;98975.28;;;9.17;66.67
60427;BME280;46274;47.168;27.604;2023-03-26T19:20:14;99004.88;;;8.32;71.52
60427;BME280;46274;47.168;27.604;2023-03-26T19:26:18;98997.38;;;9.00;67.88
60427;BME280;46274;47.168;27.604;2023-03-26T19:32:28;98966.72;;;7.46;72.79
60427;BME280;46274;47.168;27.604;2023-03-26T19:38:47;98994.09;;;9.54;64.03
60427;BME280;46274;47.168;27.604;2023-03-26T19:44:50;98942.28;;;9.22;63.83
60427;BME280;46274;47.168;27.604;2023-03-26T19:51:03;99001.16;;;8.84;66.10
60427;BME280;46274;47.168;27.604;2023-03-26T19:57:08;98988.69;;;7.87;70.08
60427;BME280;46274;47.168;27.604;2023-03-26T20:03:11;98997.97;;;6.94;73.61
60427;BME280;46274;47.168;27.604;2023-03-26T20:09:16;98986.50;;;8.57;66.14
60427;BME280;46274;47.168;27.604;2023-03-26T20:15:24;98985.28;;;8.59;64.99
60427;BME280;46274;47.168;27.604;2023-03-26T20:21:29;98988.47;;;8.84;63.19
60427;BME280;46274;47.168;27.604;2023-03-26T20:27:45;98986.28;;;8.73;62.94
60427;BME280;46274;47.168;27.604;2023-03-26T20:33:52;98943.22;;;6.55;70.29
60427;BME280;46274;47.168;27.604;2023-03-26T20:39:58;98975.41;;;7.71;66.18
60427;BME280;46274;47.168;27.604;2023-03-26T20:46:01;98934.22;;;6.48;70.55
60427;BME280;46274;47.168;27.604;2023-03-26T20:52:05;98971.72;;;6.73;71.83
60427;BME280;46274;47.168;27.604;2023-03-26T20:58:11;98971.19;;;7.38;67.89
60427;BME280;46274;47.168;27.604;2023-03-26T21:04:17;98973.91;;;6.15;72.41
60427;BME280;46274;47.168;27.604;2023-03-26T21:10:20;98942.78;;;5.73;72.87
60427;BME280;46274;47.168;27.604;2023-03-26T21:16:26;98971.59;;;6.89;68.76
60427;BME280;46274;47.168;27.604;2023-03-26T21:22:41;98958.38;;;5.78;73.97
60427;BME280;46274;47.168;27.604;2023-03-26T21:28:52;98963.03;;;6.86;67.80
60427;BME280;46274;47.168;27.604;2023-03-26T21:34:56;98960.66;;;6.37;69.41
60427;BME280;46274;47.168;27.604;2023-03-26T21:41:01;98857.66;;;5.65;69.31
60427;BME280;46274;47.168;27.604;2023-03-26T21:47:05;98944.47;;;6.14;73.56
60427;BME280;46274;47.168;27.604;2023-03-26T21:53:12;98971.94;;;6.86;68.54
60427;BME280;46274;47.168;27.604;2023-03-26T22:11:57;98946.75;;;5.30;75.27
60427;BME280;46274;47.168;27.604;2023-03-26T22:18:03;98898.94;;;5.00;74.38
60427;BME280;46274;47.168;27.604;2023-03-26T22:24:09;98854.13;;;5.17;71.95
60427;BME280;46274;47.168;27.604;2023-03-26T22:30:12;98934.34;;;5.04;74.68
60427;BME280;46274;47.168;27.604;2023-03-26T22:36:19;98889.72;;;6.06;68.36
60427;BME280;46274;47.168;27.604;2023-03-26T22:42:24;98926.41;;;6.30;67.46
60427;BME280;46274;47.168;27.604;2023-03-26T22:48:37;98840.72;;;5.96;66.16
60427;BME280;46274;47.168;27.604;2023-03-26T22:54:47;98891.31;;;5.84;68.07
60427;BME280;46274;47.168;27.604;2023-03-26T23:01:01;98913.66;;;6.24;68.46
60427;BME280;46274;47.168;27.604;2023-03-26T23:07:05;98917.94;;;6.10;68.24
60427;BME280;46274;47.168;27.604;2023-03-26T23:13:08;98891.38;;;5.12;71.12
60427;BME280;46274;47.168;27.604;2023-03-26T23:19:10;98895.91;;;5.20;70.82
60427;BME280;46274;47.168;27.604;2023-03-26T23:25:13;98864.25;;;5.86;67.73
60427;BME280;46274;47.168;27.604;2023-03-26T23:31:18;98831.72;;;5.41;69.21
60427;BME280;46274;47.168;27.604;2023-03-26T23:37:21;98880.69;;;5.91;68.53
60427;BME280;46274;47.168;27.604;2023-03-26T23:43:27;98877.72;;;5.94;67.30
60427;BME280;46274;47.168;27.604;2023-03-26T23:49:30;98859.19;;;5.91;66.44
60427;BME280;46274;47.168;27.604;2023-03-26T23:55:34;98819.19;;;5.96;65.30
